Emneth, United Kingdom
Current Conditions -  °F | °C
As of 9:50 AM on Friday 31 Oct 2014 (Local Time) from EGYM Reporting Station
Haze Haze  
Wind Chill: 63°   Ceiling: 24000
Heat Index: 63°   Visibility: 5mi
Dew Point: 57°   Wind: 10mph
Humidity: 82%   Direction: 170°S
Pressure: 30.03"   Gusts: NA
Location:  52.64°N, 0.21°E
Report Text: EGYM 310950Z 17009KT 8000 HZ BKN240 17/14 Q1017 BLU NOSIG
Loading
Personal Weather Stations






























Interactive Weather Map New forecast layout! Learn more

10-Day Weather Forecast

Advertisements
Track Severe Weather on mobile